createdAt,value
2023-03-22T00:00:07.775Z,86.72
2023-03-22T00:00:40.207Z,86.52
2023-03-22T00:01:17.920Z,86.90
2023-03-22T00:01:49.968Z,87.15
2023-03-22T00:02:21.860Z,87.20
2023-03-22T00:02:55.776Z,87.04
2023-03-22T00:03:28.158Z,87.01
2023-03-22T00:04:00.520Z,87.31
2023-03-22T00:04:32.779Z,87.21
2023-03-22T00:05:04.882Z,86.99
2023-03-22T00:05:36.706Z,86.92
2023-03-22T00:06:09.421Z,87.06
2023-03-22T00:06:41.133Z,86.90
2023-03-22T00:07:12.760Z,86.86
2023-03-22T00:07:44.354Z,86.86
2023-03-22T00:08:16.017Z,86.79
2023-03-22T00:08:51.962Z,87.11
2023-03-22T00:09:23.569Z,87.67
2023-03-22T00:09:55.378Z,87.60
2023-03-22T00:10:29.093Z,87.54
2023-03-22T00:11:00.830Z,87.48
2023-03-22T00:11:32.671Z,87.58
2023-03-22T00:12:04.541Z,87.44
2023-03-22T00:12:36.131Z,87.44
2023-03-22T00:13:10.082Z,87.61
2023-03-22T00:13:43.170Z,87.46
2023-03-22T00:14:14.790Z,87.05
2023-03-22T00:14:46.858Z,86.93
2023-03-22T00:15:18.710Z,87.09
2023-03-22T00:15:50.494Z,87.25
2023-03-22T00:16:22.711Z,87.20
2023-03-22T00:16:54.399Z,87.12
2023-03-22T00:17:26.185Z,86.90
2023-03-22T00:17:59.065Z,87.01
2023-03-22T00:18:31.378Z,87.14
2023-03-22T00:19:03.134Z,87.24
2023-03-22T00:19:34.769Z,87.40
2023-03-22T00:20:07.300Z,87.14
2023-03-22T00:20:40.490Z,87.30
2023-03-22T00:21:14.859Z,87.24
2023-03-22T00:21:46.607Z,87.33
2023-03-22T00:22:18.420Z,87.27
2023-03-22T00:22:50.951Z,87.40
2023-03-22T00:23:23.532Z,87.69
2023-03-22T00:23:55.337Z,87.13
2023-03-22T00:24:26.916Z,86.79
2023-03-22T00:24:59.171Z,87.04
2023-03-22T00:25:31.138Z,87.28
2023-03-22T00:26:02.877Z,87.35
2023-03-22T00:26:35.121Z,87.58
2023-03-22T00:27:06.765Z,87.83
2023-03-22T00:27:38.595Z,88.25
2023-03-22T00:28:10.312Z,88.22
2023-03-22T00:28:42.447Z,88.05
2023-03-22T00:29:14.085Z,87.99
2023-03-22T00:29:45.666Z,88.16
2023-03-22T00:30:17.826Z,88.27
2023-03-22T00:30:59.320Z,88.13
2023-03-22T00:31:31.073Z,88.04
2023-03-22T00:32:04.258Z,87.89
2023-03-22T00:32:37.332Z,87.74
2023-03-22T00:33:09.845Z,87.75
2023-03-22T00:33:41.671Z,88.26
2023-03-22T00:34:13.286Z,88.65
2023-03-22T00:34:45.261Z,88.47
2023-03-22T00:35:16.962Z,88.02
2023-03-22T00:35:58.240Z,88.13
2023-03-22T00:36:29.843Z,88.42
2023-03-22T00:37:01.475Z,88.50
2023-03-22T00:37:34.238Z,88.33
2023-03-22T00:38:14.471Z,88.73
2023-03-22T00:38:46.117Z,89.18
2023-03-22T00:39:17.850Z,89.17
2023-03-22T00:39:49.536Z,89.06
2023-03-22T00:40:21.315Z,89.14
2023-03-22T00:40:52.911Z,89.36
2023-03-22T00:41:24.587Z,89.40
2023-03-22T00:41:56.294Z,89.03
2023-03-22T00:42:27.979Z,88.69
2023-03-22T00:42:59.895Z,88.65
2023-03-22T00:43:31.502Z,88.69
2023-03-22T00:44:03.175Z,88.78
2023-03-22T00:44:34.854Z,88.92
2023-03-22T00:45:09.109Z,88.80
2023-03-22T00:45:41.231Z,88.70
2023-03-22T00:46:14.816Z,88.69
2023-03-22T00:46:46.430Z,89.03
2023-03-22T00:47:18.180Z,89.31
2023-03-22T00:47:49.847Z,89.14
2023-03-22T00:48:22.782Z,88.87
2023-03-22T00:48:54.436Z,88.60
2023-03-22T00:49:27.266Z,88.66
2023-03-22T00:49:59.454Z,88.44
2023-03-22T00:50:31.047Z,88.54
2023-03-22T00:51:03.047Z,88.63
2023-03-22T00:51:34.695Z,88.57
2023-03-22T00:52:06.594Z,88.52
2023-03-22T00:52:38.230Z,88.42
2023-03-22T00:53:09.822Z,88.50
2023-03-22T00:53:43.222Z,88.63
2023-03-22T00:54:17.095Z,88.49
2023-03-22T00:54:48.744Z,88.09
2023-03-22T00:55:20.448Z,88.26
2023-03-22T00:55:52.160Z,88.31
2023-03-22T00:56:25.549Z,88.37
2023-03-22T00:56:57.280Z,88.50
2023-03-22T00:57:28.970Z,88.47
2023-03-22T00:58:00.641Z,88.53
2023-03-22T00:58:32.568Z,88.35
2023-03-22T00:59:05.047Z,88.43
2023-03-22T00:59:38.732Z,88.52
2023-03-22T01:00:13.741Z,88.65
2023-03-22T01:00:45.689Z,88.73
2023-03-22T01:01:17.374Z,88.70
2023-03-22T01:01:49.257Z,89.15
2023-03-22T01:02:20.852Z,89.35
2023-03-22T01:02:59.693Z,89.50
2023-03-22T01:03:31.515Z,89.66
2023-03-22T01:04:05.213Z,89.66
2023-03-22T01:04:36.794Z,89.94
2023-03-22T01:05:09.674Z,90.37
2023-03-22T01:05:41.307Z,89.50
2023-03-22T01:06:12.912Z,89.30
2023-03-22T01:06:44.801Z,89.57
2023-03-22T01:07:17.964Z,89.28
2023-03-22T01:07:55.133Z,88.98
2023-03-22T01:08:33.700Z,89.64
2023-03-22T01:09:05.290Z,89.50
2023-03-22T01:09:37.125Z,89.11
2023-03-22T01:10:10.590Z,89.24
2023-03-22T01:10:44.359Z,89.74
2023-03-22T01:11:16.245Z,89.31
2023-03-22T01:11:47.880Z,89.06
2023-03-22T01:12:20.647Z,89.34
2023-03-22T01:12:52.340Z,89.72
2023-03-22T01:13:24.101Z,89.86
2023-03-22T01:13:55.924Z,89.85
2023-03-22T01:14:28.487Z,89.86
2023-03-22T01:15:00.176Z,89.75
2023-03-22T01:15:32.118Z,89.95
2023-03-22T01:16:04.943Z,89.92
2023-03-22T01:16:37.581Z,89.52
2023-03-22T01:17:09.764Z,89.75
2023-03-22T01:17:41.843Z,90.07
2023-03-22T01:18:13.543Z,90.23
2023-03-22T01:18:45.224Z,89.82
2023-03-22T01:19:16.874Z,89.50
2023-03-22T01:19:48.490Z,89.46
2023-03-22T01:20:20.400Z,89.45
2023-03-22T01:20:52.391Z,89.72
2023-03-22T01:21:24.017Z,89.60
2023-03-22T01:21:55.783Z,89.45
2023-03-22T01:22:27.439Z,90.02
2023-03-22T01:22:59.686Z,90.13
2023-03-22T01:23:31.988Z,89.62
2023-03-22T01:24:04.008Z,89.70
2023-03-22T01:24:35.726Z,89.57
2023-03-22T01:25:07.809Z,89.73
2023-03-22T01:25:39.434Z,89.83
2023-03-22T01:26:11.177Z,89.45
2023-03-22T01:26:43.075Z,89.46
2023-03-22T01:27:14.682Z,89.57
2023-03-22T01:27:46.403Z,89.10
2023-03-22T01:28:18.118Z,88.99
2023-03-22T01:28:49.693Z,89.17
2023-03-22T01:29:21.294Z,89.37
2023-03-22T01:29:52.910Z,89.45
2023-03-22T01:30:24.520Z,89.63
2023-03-22T01:30:57.072Z,89.41
2023-03-22T01:31:28.668Z,89.55
2023-03-22T01:32:00.506Z,89.58
2023-03-22T01:32:32.165Z,89.55
2023-03-22T01:33:03.845Z,89.28
2023-03-22T01:33:35.643Z,89.17
2023-03-22T01:34:07.533Z,88.32
2023-03-22T01:34:39.149Z,88.39
2023-03-22T01:35:10.919Z,88.46
2023-03-22T01:35:42.780Z,87.94
2023-03-22T01:36:14.471Z,88.16
2023-03-22T01:36:46.097Z,88.77
2023-03-22T01:37:18.222Z,88.82
2023-03-22T01:37:50.057Z,88.47
2023-03-22T01:38:22.420Z,88.46
2023-03-22T01:38:54.101Z,88.76
2023-03-22T01:39:26.310Z,88.83
2023-03-22T01:39:58.075Z,88.70
2023-03-22T01:40:29.795Z,88.84
2023-03-22T01:41:01.427Z,88.83
2023-03-22T01:41:35.176Z,88.80
2023-03-22T01:42:06.855Z,88.82
2023-03-22T01:42:38.670Z,88.96
2023-03-22T01:43:16.040Z,89.25
2023-03-22T01:44:29.584Z,89.70
2023-03-22T01:45:16.889Z,89.46
2023-03-22T01:45:48.767Z,89.76
2023-03-22T01:46:20.501Z,90.20
2023-03-22T01:46:52.384Z,89.83
2023-03-22T01:47:24.109Z,89.83
2023-03-22T01:47:59.311Z,89.62
2023-03-22T01:48:35.749Z,89.64
2023-03-22T01:49:12.651Z,89.41
2023-03-22T01:49:45.074Z,89.39
2023-03-22T01:50:17.600Z,89.39
2023-03-22T01:51:12.244Z,89.32
2023-03-22T01:51:46.556Z,89.41
2023-03-22T01:52:18.183Z,89.48
2023-03-22T01:52:51.550Z,89.67
2023-03-22T01:53:26.019Z,89.73
2023-03-22T01:54:04.106Z,89.94
2023-03-22T01:54:45.386Z,90.21
2023-03-22T01:55:18.306Z,90.40
2023-03-22T01:55:49.949Z,90.52
2023-03-22T01:56:24.364Z,90.53
2023-03-22T01:56:56.419Z,90.33
2023-03-22T01:57:28.155Z,90.15
2023-03-22T01:58:01.526Z,90.09
2023-03-22T01:58:36.093Z,90.29
2023-03-22T01:59:12.678Z,90.67
2023-03-22T01:59:45.519Z,90.67
2023-03-22T02:00:19.111Z,90.33
2023-03-22T02:00:53.049Z,90.60
2023-03-22T02:01:25.787Z,90.30
2023-03-22T02:02:02.876Z,90.20
2023-03-22T02:02:34.924Z,89.95
2023-03-22T02:03:07.487Z,90.52
2023-03-22T02:03:48.459Z,90.18
2023-03-22T02:04:25.706Z,90.22
2023-03-22T02:04:58.290Z,89.53
2023-03-22T02:05:30.291Z,90.03
2023-03-22T02:06:01.917Z,90.42
2023-03-22T02:06:38.616Z,90.57
2023-03-22T02:07:15.525Z,90.25
2023-03-22T02:07:47.297Z,89.83
2023-03-22T02:08:19.025Z,89.70
2023-03-22T02:08:53.062Z,89.95
2023-03-22T02:09:24.726Z,90.09
2023-03-22T02:09:56.893Z,90.01
2023-03-22T02:10:28.746Z,90.02
2023-03-22T02:11:03.525Z,90.10
2023-03-22T02:11:42.294Z,90.06
2023-03-22T02:12:38.658Z,90.30
2023-03-22T02:13:29.290Z,90.43
2023-03-22T02:14:09.220Z,90.50
2023-03-22T02:14:59.815Z,90.12
2023-03-22T02:15:43.569Z,90.14
2023-03-22T02:16:15.720Z,90.47
2023-03-22T02:17:19.804Z,91.04
2023-03-22T02:18:16.628Z,91.42
2023-03-22T02:19:06.302Z,90.78
2023-03-22T02:20:10.665Z,90.75
2023-03-22T02:20:42.294Z,90.51
2023-03-22T02:21:22.894Z,90.43
2023-03-22T02:22:22.040Z,90.34
2023-03-22T02:23:12.270Z,90.57
2023-03-22T02:24:14.790Z,90.43
2023-03-22T02:25:17.702Z,91.02
2023-03-22T02:26:20.020Z,91.28
2023-03-22T02:26:54.522Z,91.11
2023-03-22T02:27:59.978Z,90.95
2023-03-22T02:28:49.753Z,91.06
2023-03-22T02:29:37.102Z,91.69
2023-03-22T02:30:36.584Z,92.07
2023-03-22T02:31:38.492Z,92.48
2023-03-22T02:32:28.854Z,92.19
2023-03-22T02:33:09.433Z,92.39
2023-03-22T02:34:21.033Z,92.11
2023-03-22T02:35:21.662Z,91.46
2023-03-22T02:36:14.476Z,91.17
2023-03-22T02:37:14.101Z,90.86
2023-03-22T02:37:51.630Z,90.80
2023-03-22T02:38:29.299Z,90.80
2023-03-22T02:39:16.428Z,90.98
2023-03-22T02:39:56.286Z,91.30
2023-03-22T02:40:34.802Z,91.58
2023-03-22T02:41:37.712Z,91.56
2023-03-22T02:42:14.893Z,91.27
2023-03-22T02:42:55.787Z,91.19
2023-03-22T02:43:39.021Z,90.85
2023-03-22T02:44:39.461Z,91.25
2023-03-22T02:45:30.363Z,90.93
2023-03-22T02:46:10.034Z,90.66
2023-03-22T02:46:44.181Z,91.17
2023-03-22T02:47:34.348Z,91.06
2023-03-22T02:48:28.773Z,91.16
2023-03-22T02:49:15.508Z,91.36
2023-03-22T02:49:56.575Z,91.33
2023-03-22T02:50:38.505Z,91.27
2023-03-22T02:51:18.345Z,90.89
2023-03-22T02:52:05.687Z,90.99
2023-03-22T02:52:46.578Z,91.61
2023-03-22T02:53:42.276Z,92.78
2023-03-22T02:54:22.788Z,93.46
2023-03-22T02:55:14.504Z,92.73
2023-03-22T02:56:03.459Z,92.31
2023-03-22T02:56:47.377Z,91.96
2023-03-22T02:57:37.990Z,92.49
2023-03-22T02:58:18.262Z,92.51
2023-03-22T02:58:56.545Z,92.40
2023-03-22T02:59:31.381Z,92.86
2023-03-22T03:00:10.811Z,93.70
2023-03-22T03:00:44.653Z,92.86
2023-03-22T03:01:29.249Z,92.37
2023-03-22T03:02:03.896Z,92.53
2023-03-22T03:02:36.893Z,92.71
2023-03-22T03:03:12.776Z,92.30
2023-03-22T03:03:49.581Z,91.25
2023-03-22T03:04:26.903Z,91.40
2023-03-22T03:04:59.500Z,91.89
2023-03-22T03:05:33.540Z,92.67
2023-03-22T03:06:13.319Z,92.50
2023-03-22T03:06:48.809Z,91.85
2023-03-22T03:07:25.174Z,91.34
2023-03-22T03:08:01.283Z,90.98
2023-03-22T03:08:33.340Z,92.03
2023-03-22T03:09:05.931Z,92.21
2023-03-22T03:09:41.951Z,92.22
2023-03-22T03:10:16.855Z,92.17
2023-03-22T03:10:49.108Z,92.61
2023-03-22T03:11:21.429Z,92.60
2023-03-22T03:11:54.051Z,92.48
2023-03-22T03:12:27.246Z,92.34
2023-03-22T03:12:58.988Z,92.07
2023-03-22T03:13:30.951Z,92.14
2023-03-22T03:14:02.545Z,92.78
2023-03-22T03:14:34.158Z,92.86
2023-03-22T03:15:13.771Z,91.91
2023-03-22T03:15:52.756Z,92.07
2023-03-22T03:16:27.927Z,91.67
2023-03-22T03:17:08.533Z,91.56
2023-03-22T03:17:54.011Z,91.50
2023-03-22T03:18:37.672Z,91.79
2023-03-22T03:19:22.618Z,92.36
2023-03-22T03:20:09.408Z,92.33
2023-03-22T03:21:08.851Z,92.28
2023-03-22T03:22:26.169Z,92.40
2023-03-22T03:23:07.339Z,92.57
2023-03-22T03:23:49.798Z,92.33
2023-03-22T03:24:39.709Z,92.45
2023-03-22T03:25:29.603Z,92.13
2023-03-22T03:26:08.419Z,91.97
2023-03-22T03:27:01.002Z,91.99
2023-03-22T03:27:44.483Z,92.05
2023-03-22T03:28:30.379Z,91.79
2023-03-22T03:29:14.011Z,91.95
2023-03-22T03:29:54.430Z,92.51
2023-03-22T03:30:32.627Z,92.83
2023-03-22T03:31:09.869Z,93.03
2023-03-22T03:31:51.055Z,92.55
2023-03-22T03:32:35.259Z,93.15
2023-03-22T03:33:09.650Z,93.19
2023-03-22T03:33:49.505Z,93.05
2023-03-22T03:34:36.985Z,93.28
2023-03-22T03:35:22.805Z,93.07
2023-03-22T03:36:02.015Z,92.99
2023-03-22T03:36:37.821Z,92.93
2023-03-22T03:37:15.951Z,92.75
2023-03-22T03:37:52.722Z,92.57
2023-03-22T03:38:29.478Z,92.66
2023-03-22T03:39:03.242Z,92.64
2023-03-22T03:39:40.217Z,92.53
2023-03-22T03:40:16.700Z,92.54
2023-03-22T03:40:52.253Z,92.28
2023-03-22T03:41:30.422Z,92.22
2023-03-22T03:42:03.885Z,92.25
2023-03-22T03:42:39.106Z,92.56
2023-03-22T03:43:12.160Z,92.53
2023-03-22T03:43:45.900Z,92.74
2023-03-22T03:44:19.292Z,92.80
2023-03-22T03:44:51.105Z,92.86
2023-03-22T03:45:23.798Z,92.59
2023-03-22T03:45:55.862Z,92.31
2023-03-22T03:46:29.258Z,92.58
2023-03-22T03:47:02.585Z,92.74
2023-03-22T03:47:35.896Z,92.66
2023-03-22T03:48:18.533Z,92.73
2023-03-22T03:48:52.980Z,92.91
2023-03-22T03:49:24.777Z,93.35
2023-03-22T03:49:56.419Z,93.34
2023-03-22T03:50:28.602Z,93.33
2023-03-22T03:51:01.996Z,93.20
2023-03-22T03:51:45.145Z,93.31
2023-03-22T03:52:17.347Z,93.34
2023-03-22T03:52:49.108Z,93.37
2023-03-22T03:53:20.687Z,93.29
2023-03-22T03:53:52.297Z,93.04
2023-03-22T03:54:24.184Z,92.84
2023-03-22T03:54:56.076Z,92.73
2023-03-22T03:55:28.652Z,92.66
2023-03-22T03:56:00.345Z,92.58
2023-03-22T03:56:31.968Z,92.45
2023-03-22T03:57:04.237Z,92.38
2023-03-22T03:57:36.012Z,92.40
2023-03-22T03:58:09.563Z,92.37
2023-03-22T03:58:41.293Z,92.34
2023-03-22T03:59:12.908Z,92.17
2023-03-22T03:59:44.676Z,91.97
2023-03-22T04:00:17.192Z,91.80
2023-03-22T04:00:49.356Z,91.86
2023-03-22T04:01:21.470Z,91.86
2023-03-22T04:01:53.195Z,92.02
2023-03-22T04:02:24.954Z,92.28
2023-03-22T04:02:56.584Z,92.52
2023-03-22T04:03:28.248Z,92.62
2023-03-22T04:04:00.078Z,92.69
2023-03-22T04:04:32.124Z,92.64
2023-03-22T04:05:04.115Z,92.70
2023-03-22T04:05:35.792Z,92.51
2023-03-22T04:06:08.966Z,92.35
2023-03-22T04:06:40.619Z,92.42
2023-03-22T04:07:12.399Z,92.40
2023-03-22T04:07:43.997Z,92.18
2023-03-22T04:08:15.637Z,92.25
2023-03-22T04:08:53.595Z,92.28
2023-03-22T04:09:27.493Z,92.28
2023-03-22T04:09:59.139Z,92.58
2023-03-22T04:10:31.140Z,92.70
2023-03-22T04:11:02.802Z,92.72
2023-03-22T04:11:34.428Z,92.36
2023-03-22T04:12:06.582Z,92.30
2023-03-22T04:12:38.599Z,92.23
2023-03-22T04:13:10.608Z,92.27
2023-03-22T04:13:42.341Z,92.40
2023-03-22T04:14:14.066Z,92.48
2023-03-22T04:14:45.849Z,92.46
2023-03-22T04:15:17.779Z,92.41
2023-03-22T04:15:53.529Z,92.41
2023-03-22T04:16:25.310Z,91.99
2023-03-22T04:16:57.123Z,91.91
2023-03-22T04:17:29.365Z,91.94
2023-03-22T04:18:00.982Z,91.91
2023-03-22T04:18:32.773Z,91.78
2023-03-22T04:19:04.496Z,91.52
2023-03-22T04:19:36.244Z,91.35
2023-03-22T04:20:11.044Z,91.28
2023-03-22T04:20:45.626Z,91.26
2023-03-22T04:21:17.407Z,91.19
2023-03-22T04:21:49.399Z,91.12
2023-03-22T04:22:21.039Z,90.94
2023-03-22T04:22:52.846Z,90.79
2023-03-22T04:23:26.006Z,90.82
2023-03-22T04:23:58.042Z,90.96
2023-03-22T04:24:29.613Z,91.09
2023-03-22T04:25:01.663Z,91.42
2023-03-22T04:25:33.968Z,91.61
2023-03-22T04:26:05.976Z,91.89
2023-03-22T04:26:37.814Z,91.90
2023-03-22T04:27:09.496Z,92.03
2023-03-22T04:27:42.595Z,92.16
2023-03-22T04:28:14.423Z,92.05
2023-03-22T04:28:46.020Z,92.31
2023-03-22T04:29:17.605Z,92.39
2023-03-22T04:29:51.299Z,92.36
2023-03-22T04:30:24.715Z,92.55
2023-03-22T04:30:57.810Z,92.58
2023-03-22T04:31:31.106Z,92.59
2023-03-22T04:32:03.612Z,92.43
2023-03-22T04:32:35.432Z,92.22
2023-03-22T04:33:07.316Z,92.07
2023-03-22T04:33:39.587Z,92.06
2023-03-22T04:34:11.589Z,91.95
2023-03-22T04:34:43.302Z,92.05
2023-03-22T04:35:16.072Z,92.03
2023-03-22T04:35:47.715Z,92.03
2023-03-22T04:36:19.856Z,92.21
2023-03-22T04:36:51.435Z,92.34
2023-03-22T04:37:27.037Z,92.71
2023-03-22T04:37:59.324Z,93.20
2023-03-22T04:38:30.984Z,93.05
2023-03-22T04:39:09.533Z,92.94
2023-03-22T04:39:41.581Z,93.01
2023-03-22T04:40:17.443Z,92.93
2023-03-22T04:40:49.096Z,92.48
2023-03-22T04:41:20.700Z,92.25
2023-03-22T04:41:52.270Z,92.19
2023-03-22T04:42:24.307Z,92.20
2023-03-22T04:42:57.621Z,92.00
2023-03-22T04:43:29.205Z,91.99
2023-03-22T04:44:03.539Z,92.22
2023-03-22T04:44:35.600Z,92.10
2023-03-22T04:45:08.138Z,92.17
2023-03-22T04:45:39.945Z,92.22
2023-03-22T04:46:12.750Z,92.33
2023-03-22T04:46:44.643Z,92.64
2023-03-22T04:47:16.380Z,92.52
2023-03-22T04:47:48.058Z,92.71
2023-03-22T04:48:22.290Z,92.78
2023-03-22T04:48:54.009Z,92.89
2023-03-22T04:49:27.302Z,92.76
2023-03-22T04:49:58.903Z,92.48
2023-03-22T04:50:30.481Z,92.11
2023-03-22T04:51:04.642Z,91.76
2023-03-22T04:51:36.462Z,91.74
2023-03-22T04:52:08.483Z,91.64
2023-03-22T04:52:40.531Z,91.63
2023-03-22T04:53:12.543Z,91.46
2023-03-22T04:53:44.208Z,91.57
2023-03-22T04:54:15.949Z,91.69
2023-03-22T04:54:47.696Z,91.69
2023-03-22T04:55:19.428Z,91.82
2023-03-22T04:55:51.074Z,91.97
2023-03-22T04:56:22.761Z,92.00
2023-03-22T04:56:54.405Z,91.96
2023-03-22T04:57:26.128Z,92.08
2023-03-22T04:57:57.705Z,91.96
2023-03-22T04:58:29.327Z,91.97
2023-03-22T04:59:01.438Z,91.53
2023-03-22T04:59:33.132Z,91.49
2023-03-22T05:00:08.450Z,91.52
2023-03-22T05:00:42.376Z,91.64
2023-03-22T05:01:15.805Z,91.56
2023-03-22T05:01:51.728Z,91.48
2023-03-22T05:02:23.524Z,91.43
2023-03-22T05:02:55.345Z,91.35
2023-03-22T05:03:27.170Z,91.28
2023-03-22T05:03:58.783Z,91.31
2023-03-22T05:04:31.517Z,91.13
2023-03-22T05:05:03.150Z,90.92
2023-03-22T05:05:34.753Z,91.03
2023-03-22T05:06:08.080Z,91.25
2023-03-22T05:06:39.799Z,91.28
2023-03-22T05:07:11.407Z,91.43
2023-03-22T05:07:43.024Z,91.62
2023-03-22T05:08:14.726Z,91.95
2023-03-22T05:08:46.413Z,92.04
2023-03-22T05:09:18.297Z,92.41
2023-03-22T05:09:49.920Z,92.28
2023-03-22T05:10:21.524Z,91.77
2023-03-22T05:10:54.922Z,91.53
2023-03-22T05:11:28.213Z,91.35
2023-03-22T05:11:59.846Z,91.29
2023-03-22T05:12:31.971Z,91.21
2023-03-22T05:13:03.613Z,91.18
2023-03-22T05:13:36.432Z,91.10
2023-03-22T05:14:09.434Z,90.94
2023-03-22T05:14:41.304Z,90.85
2023-03-22T05:15:13.900Z,90.98
2023-03-22T05:15:45.844Z,91.01
2023-03-22T05:16:17.604Z,91.08
2023-03-22T05:16:49.443Z,91.49
2023-03-22T05:17:21.212Z,91.59
2023-03-22T05:17:52.830Z,91.76
2023-03-22T05:18:26.353Z,91.53
2023-03-22T05:18:58.437Z,91.60
2023-03-22T05:19:30.172Z,91.29
2023-03-22T05:20:09.539Z,91.30
2023-03-22T05:20:42.235Z,91.26
2023-03-22T05:21:15.819Z,91.23
2023-03-22T05:21:47.505Z,90.82
2023-03-22T05:22:19.556Z,90.96
2023-03-22T05:22:51.192Z,90.99
2023-03-22T05:23:23.956Z,90.95
2023-03-22T05:23:57.561Z,90.70
2023-03-22T05:24:30.482Z,90.74
2023-03-22T05:25:02.233Z,90.63
2023-03-22T05:25:34.321Z,90.69
2023-03-22T05:26:08.529Z,90.44
2023-03-22T05:26:42.480Z,90.54
2023-03-22T05:27:14.416Z,90.55
2023-03-22T05:27:46.183Z,90.50
2023-03-22T05:28:21.437Z,90.61
2023-03-22T05:28:54.052Z,90.30
2023-03-22T05:29:27.120Z,90.09
2023-03-22T05:29:58.727Z,90.13
2023-03-22T05:30:31.248Z,90.07
2023-03-22T05:31:03.318Z,89.99
2023-03-22T05:31:34.998Z,90.02
2023-03-22T05:32:06.613Z,89.85
2023-03-22T05:32:43.032Z,89.86
2023-03-22T05:33:16.953Z,89.96
2023-03-22T05:33:52.497Z,90.05
2023-03-22T05:34:24.180Z,90.20
2023-03-22T05:34:56.360Z,90.22
2023-03-22T05:35:28.075Z,90.04
2023-03-22T05:35:59.674Z,89.94
2023-03-22T05:36:31.478Z,90.20
2023-03-22T05:37:03.800Z,90.29
2023-03-22T05:37:35.717Z,90.86
2023-03-22T05:38:08.238Z,90.89
2023-03-22T05:38:40.001Z,91.00
2023-03-22T05:39:11.989Z,91.00
2023-03-22T05:39:43.722Z,90.99
2023-03-22T05:40:15.538Z,91.28
2023-03-22T05:40:47.134Z,91.20
2023-03-22T05:41:19.744Z,91.00
2023-03-22T05:41:51.399Z,90.88
2023-03-22T05:42:22.985Z,90.33
2023-03-22T05:42:56.005Z,90.21
2023-03-22T05:43:27.788Z,90.16
2023-03-22T05:44:00.515Z,90.20
2023-03-22T05:44:32.138Z,90.24
2023-03-22T05:45:03.989Z,89.87
2023-03-22T05:45:36.917Z,89.67
2023-03-22T05:46:10.459Z,89.44
2023-03-22T05:46:42.103Z,89.14
2023-03-22T05:47:13.769Z,89.20
2023-03-22T05:47:45.560Z,89.22
2023-03-22T05:48:17.983Z,89.29
2023-03-22T05:48:49.730Z,89.31
2023-03-22T05:49:21.421Z,89.33
2023-03-22T05:49:53.083Z,89.21
2023-03-22T05:50:24.918Z,89.28
2023-03-22T05:50:56.528Z,89.51
2023-03-22T05:51:28.197Z,89.61
2023-03-22T05:51:59.855Z,89.74
2023-03-22T05:52:32.532Z,89.84
2023-03-22T05:53:04.234Z,90.11
2023-03-22T05:53:36.493Z,90.15
2023-03-22T05:54:08.944Z,89.90
2023-03-22T05:54:40.852Z,90.11
2023-03-22T05:55:13.920Z,90.09
2023-03-22T05:55:46.177Z,89.94
2023-03-22T05:56:17.868Z,89.76
2023-03-22T05:56:49.529Z,89.98
2023-03-22T05:57:21.222Z,89.89
2023-03-22T05:57:54.787Z,89.93
2023-03-22T05:58:31.072Z,89.24
2023-03-22T05:59:04.593Z,89.15
2023-03-22T05:59:36.475Z,89.17
2023-03-22T06:00:13.548Z,89.32
2023-03-22T06:00:49.592Z,89.08
2023-03-22T06:01:21.546Z,88.48
2023-03-22T06:01:53.238Z,88.81
2023-03-22T06:02:26.037Z,89.10
2023-03-22T06:03:00.628Z,89.41
2023-03-22T06:03:32.522Z,89.45
2023-03-22T06:04:04.293Z,89.08
2023-03-22T06:04:35.979Z,88.97
2023-03-22T06:05:08.512Z,89.47
2023-03-22T06:05:40.435Z,89.50
2023-03-22T06:06:12.072Z,90.64
2023-03-22T06:06:43.714Z,90.61
2023-03-22T06:07:15.858Z,90.14
2023-03-22T06:07:47.524Z,89.40
2023-03-22T06:08:19.131Z,89.08
2023-03-22T06:08:51.007Z,88.73
2023-03-22T06:09:22.649Z,88.55
2023-03-22T06:09:54.239Z,88.48
2023-03-22T06:10:26.952Z,88.23
2023-03-22T06:10:58.573Z,88.02
2023-03-22T06:11:33.992Z,87.95
2023-03-22T06:12:05.898Z,88.21
2023-03-22T06:12:37.495Z,87.97
2023-03-22T06:13:09.175Z,87.90
2023-03-22T06:13:40.911Z,88.20
2023-03-22T06:14:12.502Z,88.28
2023-03-22T06:14:44.236Z,88.43
2023-03-22T06:15:15.999Z,88.88
2023-03-22T06:15:47.933Z,89.70
2023-03-22T06:16:19.667Z,89.34
2023-03-22T06:16:52.099Z,88.54
2023-03-22T06:17:24.443Z,87.73
2023-03-22T06:17:56.024Z,87.79
2023-03-22T06:18:28.029Z,87.48
2023-03-22T06:19:00.334Z,87.47
2023-03-22T06:19:31.961Z,87.53
2023-03-22T06:20:11.877Z,87.28
2023-03-22T06:20:43.891Z,87.02
2023-03-22T06:21:15.899Z,86.73
2023-03-22T06:21:47.829Z,87.00
2023-03-22T06:22:19.446Z,87.66
2023-03-22T06:22:51.142Z,87.06
2023-03-22T06:23:22.928Z,88.08
2023-03-22T06:23:54.554Z,88.02
2023-03-22T06:24:26.351Z,87.92
2023-03-22T06:24:58.038Z,87.97
2023-03-22T06:25:29.639Z,88.01
2023-03-22T06:26:01.271Z,88.37
2023-03-22T06:26:32.897Z,89.49
2023-03-22T06:27:04.611Z,89.62
2023-03-22T06:27:36.268Z,89.28
2023-03-22T06:28:08.833Z,88.75
2023-03-22T06:28:40.752Z,88.33
2023-03-22T06:29:12.376Z,87.87
2023-03-22T06:29:44.565Z,87.68
2023-03-22T06:30:16.241Z,87.38
2023-03-22T06:30:47.881Z,87.17
2023-03-22T06:31:19.617Z,87.01
2023-03-22T06:31:51.345Z,87.02
2023-03-22T06:32:26.856Z,87.11
2023-03-22T06:33:00.836Z,87.34
2023-03-22T06:33:32.466Z,87.50
2023-03-22T06:34:04.837Z,87.54
2023-03-22T06:34:36.753Z,87.56
2023-03-22T06:35:08.821Z,87.57
2023-03-22T06:35:40.671Z,88.10
2023-03-22T06:36:12.331Z,88.42
2023-03-22T06:36:44.075Z,88.15
2023-03-22T06:37:16.444Z,88.05
2023-03-22T06:37:48.192Z,88.58
2023-03-22T06:38:19.758Z,88.48
2023-03-22T06:38:51.528Z,88.51
2023-03-22T06:39:23.577Z,88.45
2023-03-22T06:39:55.196Z,88.33
2023-03-22T06:40:27.359Z,88.19
2023-03-22T06:40:58.988Z,88.08
2023-03-22T06:41:31.226Z,87.95
2023-03-22T06:42:02.861Z,87.94
2023-03-22T06:42:34.664Z,87.81
2023-03-22T06:43:07.308Z,87.54
2023-03-22T06:43:39.276Z,87.52
2023-03-22T06:44:11.109Z,87.03
2023-03-22T06:44:44.642Z,86.98
2023-03-22T06:45:19.347Z,87.47
2023-03-22T06:45:51.231Z,87.58
2023-03-22T06:46:22.916Z,87.29
2023-03-22T06:46:54.596Z,87.41
2023-03-22T06:47:27.301Z,87.51
2023-03-22T06:47:59.750Z,87.47
2023-03-22T06:48:31.441Z,87.88
2023-03-22T06:49:03.120Z,87.45
2023-03-22T06:49:34.860Z,87.75
2023-03-22T06:50:06.914Z,88.22
2023-03-22T06:50:41.249Z,87.75
2023-03-22T06:51:14.187Z,87.88
2023-03-22T06:51:46.015Z,87.89
2023-03-22T06:52:17.754Z,87.79
2023-03-22T06:52:49.464Z,87.55
2023-03-22T06:53:21.143Z,87.65
2023-03-22T06:53:52.813Z,87.25
2023-03-22T06:54:24.465Z,87.30
2023-03-22T06:54:57.114Z,86.86
2023-03-22T06:55:33.259Z,86.82
2023-03-22T06:56:05.485Z,86.87
2023-03-22T06:56:37.341Z,86.97
2023-03-22T06:57:09.249Z,87.05
2023-03-22T06:57:40.863Z,86.83
2023-03-22T06:58:12.592Z,86.68
2023-03-22T06:58:44.305Z,86.94
2023-03-22T06:59:16.060Z,86.79
2023-03-22T06:59:47.724Z,86.62
2023-03-22T07:00:19.564Z,86.41
2023-03-22T07:00:52.171Z,86.51
2023-03-22T07:01:24.342Z,86.23
2023-03-22T07:01:56.258Z,86.57
2023-03-22T07:02:27.888Z,86.54
2023-03-22T07:02:59.923Z,86.56
2023-03-22T07:03:31.664Z,86.41
2023-03-22T07:04:03.556Z,86.55
2023-03-22T07:04:35.289Z,86.40
2023-03-22T07:05:07.306Z,86.26
2023-03-22T07:05:38.981Z,86.43
2023-03-22T07:06:10.624Z,86.62
2023-03-22T07:06:42.217Z,86.56
2023-03-22T07:07:14.015Z,86.45
2023-03-22T07:07:46.412Z,86.43
2023-03-22T07:08:18.088Z,87.02
2023-03-22T07:08:51.579Z,86.84
2023-03-22T07:09:24.954Z,86.45
2023-03-22T07:09:57.129Z,86.10
2023-03-22T07:10:29.290Z,86.38
2023-03-22T07:11:01.443Z,86.59
2023-03-22T07:11:33.090Z,86.70
2023-03-22T07:12:05.352Z,86.61
2023-03-22T07:12:37.049Z,86.38
2023-03-22T07:13:08.873Z,86.13
2023-03-22T07:13:40.754Z,85.72
2023-03-22T07:14:12.409Z,85.96
2023-03-22T07:14:44.117Z,86.06
2023-03-22T07:15:17.482Z,86.05
2023-03-22T07:15:49.415Z,85.81
2023-03-22T07:16:21.980Z,86.03
2023-03-22T07:16:53.621Z,85.75
2023-03-22T07:17:25.220Z,86.33
2023-03-22T07:17:56.814Z,86.38
2023-03-22T07:18:30.555Z,86.66
2023-03-22T07:19:02.248Z,86.34
2023-03-22T07:19:34.319Z,86.09
2023-03-22T07:20:07.047Z,86.10
2023-03-22T07:20:41.843Z,86.31
2023-03-22T07:21:14.011Z,86.37
2023-03-22T07:21:46.100Z,86.62
2023-03-22T07:22:18.090Z,86.28
2023-03-22T07:22:51.377Z,86.33